sensor_id;sensor_type;location;lat;lon;timestamp;P1;durP1;ratioP1;P2;durP2;ratioP2
16093;SDS011;8151;47.824;12.092;2022-08-19T00:01:56;5.10;;;4.60;;
16093;SDS011;8151;47.824;12.092;2022-08-19T00:04:26;5.03;;;4.53;;
16093;SDS011;8151;47.824;12.092;2022-08-19T00:06:58;5.37;;;4.63;;
16093;SDS011;8151;47.824;12.092;2022-08-19T00:09:27;4.87;;;4.47;;
16093;SDS011;8151;47.824;12.092;2022-08-19T00:11:56;4.70;;;4.30;;
16093;SDS011;8151;47.824;12.092;2022-08-19T00:14:28;5.00;;;4.57;;
16093;SDS011;8151;47.824;12.092;2022-08-19T00:16:58;6.23;;;5.20;;
16093;SDS011;8151;47.824;12.092;2022-08-19T00:19:29;6.10;;;5.10;;
16093;SDS011;8151;47.824;12.092;2022-08-19T00:21:58;4.07;;;3.77;;
16093;SDS011;8151;47.824;12.092;2022-08-19T00:24:27;6.67;;;4.70;;
16093;SDS011;8151;47.824;12.092;2022-08-19T00:26:56;5.00;;;4.53;;
16093;SDS011;8151;47.824;12.092;2022-08-19T00:29:45;4.60;;;4.17;;
16093;SDS011;8151;47.824;12.092;2022-08-19T00:32:18;5.10;;;4.43;;
16093;SDS011;8151;47.824;12.092;2022-08-19T00:34:49;4.37;;;3.80;;
16093;SDS011;8151;47.824;12.092;2022-08-19T00:37:19;4.63;;;4.23;;
16093;SDS011;8151;47.824;12.092;2022-08-19T00:39:49;3.50;;;3.20;;
16093;SDS011;8151;47.824;12.092;2022-08-19T00:42:19;3.57;;;3.30;;
16093;SDS011;8151;47.824;12.092;2022-08-19T00:44:49;2.83;;;2.53;;
16093;SDS011;8151;47.824;12.092;2022-08-19T00:47:18;3.00;;;2.80;;
16093;SDS011;8151;47.824;12.092;2022-08-19T00:49:50;2.80;;;2.53;;
16093;SDS011;8151;47.824;12.092;2022-08-19T00:52:23;2.40;;;2.20;;
16093;SDS011;8151;47.824;12.092;2022-08-19T00:54:55;4.10;;;2.30;;
16093;SDS011;8151;47.824;12.092;2022-08-19T00:57:26;2.33;;;2.20;;
16093;SDS011;8151;47.824;12.092;2022-08-19T00:59:58;3.50;;;3.20;;
16093;SDS011;8151;47.824;12.092;2022-08-19T01:02:30;4.13;;;2.90;;
16093;SDS011;8151;47.824;12.092;2022-08-19T01:05:02;3.00;;;2.80;;
16093;SDS011;8151;47.824;12.092;2022-08-19T01:07:34;3.23;;;2.70;;
16093;SDS011;8151;47.824;12.092;2022-08-19T01:10:06;3.10;;;2.80;;
16093;SDS011;8151;47.824;12.092;2022-08-19T01:12:38;3.50;;;2.40;;
16093;SDS011;8151;47.824;12.092;2022-08-19T01:15:08;2.50;;;2.23;;
16093;SDS011;8151;47.824;12.092;2022-08-19T01:17:40;2.83;;;2.63;;
16093;SDS011;8151;47.824;12.092;2022-08-19T01:20:12;2.37;;;2.23;;
16093;SDS011;8151;47.824;12.092;2022-08-19T01:22:44;2.63;;;2.53;;
16093;SDS011;8151;47.824;12.092;2022-08-19T01:25:16;3.20;;;2.90;;
16093;SDS011;8151;47.824;12.092;2022-08-19T01:27:51;3.10;;;2.80;;
16093;SDS011;8151;47.824;12.092;2022-08-19T01:30:21;2.73;;;2.53;;
16093;SDS011;8151;47.824;12.092;2022-08-19T01:32:53;2.40;;;2.20;;
16093;SDS011;8151;47.824;12.092;2022-08-19T01:35:22;1.80;;;1.70;;
16093;SDS011;8151;47.824;12.092;2022-08-19T01:37:55;1.57;;;1.47;;
16093;SDS011;8151;47.824;12.092;2022-08-19T01:40:27;1.57;;;1.47;;
16093;SDS011;8151;47.824;12.092;2022-08-19T01:42:58;1.80;;;1.70;;
16093;SDS011;8151;47.824;12.092;2022-08-19T01:45:27;1.67;;;1.57;;
16093;SDS011;8151;47.824;12.092;2022-08-19T01:47:58;1.77;;;1.60;;
16093;SDS011;8151;47.824;12.092;2022-08-19T01:50:28;1.37;;;1.27;;
16093;SDS011;8151;47.824;12.092;2022-08-19T01:52:59;1.50;;;1.40;;
16093;SDS011;8151;47.824;12.092;2022-08-19T01:55:34;2.03;;;1.57;;
16093;SDS011;8151;47.824;12.092;2022-08-19T01:58:08;1.47;;;1.37;;
16093;SDS011;8151;47.824;12.092;2022-08-19T02:00:40;1.37;;;1.27;;
16093;SDS011;8151;47.824;12.092;2022-08-19T02:03:09;1.60;;;1.50;;
16093;SDS011;8151;47.824;12.092;2022-08-19T02:05:38;1.60;;;1.50;;
16093;SDS011;8151;47.824;12.092;2022-08-19T02:08:09;1.30;;;1.20;;
16093;SDS011;8151;47.824;12.092;2022-08-19T02:10:39;4.20;;;1.10;;
16093;SDS011;8151;47.824;12.092;2022-08-19T02:13:09;1.23;;;1.10;;
16093;SDS011;8151;47.824;12.092;2022-08-19T02:15:40;1.07;;;1.07;;
16093;SDS011;8151;47.824;12.092;2022-08-19T02:18:09;1.10;;;1.10;;
16093;SDS011;8151;47.824;12.092;2022-08-19T02:20:38;1.10;;;1.10;;
16093;SDS011;8151;47.824;12.092;2022-08-19T02:23:10;1.00;;;1.00;;
16093;SDS011;8151;47.824;12.092;2022-08-19T02:25:42;0.77;;;0.77;;
16093;SDS011;8151;47.824;12.092;2022-08-19T02:28:14;1.00;;;0.90;;
16093;SDS011;8151;47.824;12.092;2022-08-19T02:30:45;1.00;;;1.00;;
16093;SDS011;8151;47.824;12.092;2022-08-19T02:33:15;1.10;;;1.10;;
16093;SDS011;8151;47.824;12.092;2022-08-19T02:35:45;1.20;;;1.20;;
16093;SDS011;8151;47.824;12.092;2022-08-19T02:38:16;1.30;;;1.20;;
16093;SDS011;8151;47.824;12.092;2022-08-19T02:40:53;1.40;;;1.30;;
16093;SDS011;8151;47.824;12.092;2022-08-19T02:43:24;1.30;;;1.20;;
16093;SDS011;8151;47.824;12.092;2022-08-19T02:45:58;1.47;;;1.37;;
16093;SDS011;8151;47.824;12.092;2022-08-19T02:48:27;1.40;;;1.30;;
16093;SDS011;8151;47.824;12.092;2022-08-19T02:50:55;1.10;;;1.10;;
16093;SDS011;8151;47.824;12.092;2022-08-19T02:53:26;1.30;;;1.30;;
16093;SDS011;8151;47.824;12.092;2022-08-19T02:55:56;1.47;;;1.37;;
16093;SDS011;8151;47.824;12.092;2022-08-19T02:58:24;1.10;;;1.10;;
16093;SDS011;8151;47.824;12.092;2022-08-19T03:00:55;1.40;;;1.30;;
16093;SDS011;8151;47.824;12.092;2022-08-19T03:03:24;1.30;;;1.27;;
16093;SDS011;8151;47.824;12.092;2022-08-19T03:06:02;1.27;;;1.27;;
16093;SDS011;8151;47.824;12.092;2022-08-19T03:08:33;1.07;;;1.07;;
16093;SDS011;8151;47.824;12.092;2022-08-19T03:11:02;1.30;;;1.20;;
16093;SDS011;8151;47.824;12.092;2022-08-19T03:13:31;1.10;;;1.00;;
16093;SDS011;8151;47.824;12.092;2022-08-19T03:16:00;1.27;;;1.17;;
16093;SDS011;8151;47.824;12.092;2022-08-19T03:18:32;1.43;;;1.30;;
16093;SDS011;8151;47.824;12.092;2022-08-19T03:21:01;1.97;;;1.30;;
16093;SDS011;8151;47.824;12.092;2022-08-19T03:23:29;1.30;;;1.20;;
16093;SDS011;8151;47.824;12.092;2022-08-19T03:26:02;1.17;;;1.17;;
16093;SDS011;8151;47.824;12.092;2022-08-19T03:28:42;1.00;;;1.00;;
16093;SDS011;8151;47.824;12.092;2022-08-19T03:31:24;1.03;;;1.03;;
16093;SDS011;8151;47.824;12.092;2022-08-19T03:34:11;1.50;;;1.40;;
16093;SDS011;8151;47.824;12.092;2022-08-19T03:36:40;1.23;;;1.23;;
16093;SDS011;8151;47.824;12.092;2022-08-19T03:39:09;1.97;;;1.20;;
16093;SDS011;8151;47.824;12.092;2022-08-19T03:41:40;1.40;;;1.30;;
16093;SDS011;8151;47.824;12.092;2022-08-19T03:44:12;1.30;;;1.20;;
16093;SDS011;8151;47.824;12.092;2022-08-19T03:46:44;1.00;;;1.00;;
16093;SDS011;8151;47.824;12.092;2022-08-19T03:49:14;1.00;;;1.00;;
16093;SDS011;8151;47.824;12.092;2022-08-19T03:51:44;1.30;;;1.23;;
16093;SDS011;8151;47.824;12.092;2022-08-19T03:54:14;0.93;;;0.93;;
16093;SDS011;8151;47.824;12.092;2022-08-19T03:56:50;1.20;;;1.10;;
16093;SDS011;8151;47.824;12.092;2022-08-19T03:59:21;1.17;;;1.17;;
16093;SDS011;8151;47.824;12.092;2022-08-19T04:01:53;1.00;;;1.00;;
16093;SDS011;8151;47.824;12.092;2022-08-19T04:04:22;1.27;;;1.17;;
16093;SDS011;8151;47.824;12.092;2022-08-19T04:06:55;1.10;;;1.10;;
16093;SDS011;8151;47.824;12.092;2022-08-19T04:09:24;1.20;;;0.97;;
16093;SDS011;8151;47.824;12.092;2022-08-19T04:11:55;1.10;;;1.10;;
16093;SDS011;8151;47.824;12.092;2022-08-19T04:14:26;1.93;;;1.20;;
16093;SDS011;8151;47.824;12.092;2022-08-19T04:16:57;0.90;;;0.90;;
16093;SDS011;8151;47.824;12.092;2022-08-19T04:19:26;1.53;;;0.90;;
16093;SDS011;8151;47.824;12.092;2022-08-19T04:21:57;0.87;;;0.87;;
16093;SDS011;8151;47.824;12.092;2022-08-19T04:24:26;1.03;;;1.03;;
16093;SDS011;8151;47.824;12.092;2022-08-19T04:26:56;1.17;;;0.90;;
16093;SDS011;8151;47.824;12.092;2022-08-19T04:29:27;1.67;;;1.57;;
16093;SDS011;8151;47.824;12.092;2022-08-19T04:31:56;2.37;;;2.20;;
16093;SDS011;8151;47.824;12.092;2022-08-19T04:34:35;3.80;;;2.07;;
16093;SDS011;8151;47.824;12.092;2022-08-19T04:37:25;2.03;;;1.77;;
16093;SDS011;8151;47.824;12.092;2022-08-19T04:40:03;2.60;;;2.40;;
16093;SDS011;8151;47.824;12.092;2022-08-19T04:42:52;2.10;;;1.90;;
16093;SDS011;8151;47.824;12.092;2022-08-19T04:45:21;3.73;;;1.97;;
16093;SDS011;8151;47.824;12.092;2022-08-19T04:47:53;2.07;;;1.90;;
16093;SDS011;8151;47.824;12.092;2022-08-19T04:50:44;3.70;;;3.00;;
16093;SDS011;8151;47.824;12.092;2022-08-19T04:53:12;4.07;;;2.97;;
16093;SDS011;8151;47.824;12.092;2022-08-19T04:55:42;3.97;;;3.27;;
16093;SDS011;8151;47.824;12.092;2022-08-19T04:58:12;3.90;;;3.43;;
16093;SDS011;8151;47.824;12.092;2022-08-19T05:00:41;4.13;;;3.50;;
16093;SDS011;8151;47.824;12.092;2022-08-19T05:03:10;4.57;;;4.00;;
16093;SDS011;8151;47.824;12.092;2022-08-19T05:05:40;3.87;;;3.53;;
16093;SDS011;8151;47.824;12.092;2022-08-19T05:08:11;6.97;;;4.20;;
16093;SDS011;8151;47.824;12.092;2022-08-19T05:10:41;5.07;;;3.90;;
16093;SDS011;8151;47.824;12.092;2022-08-19T05:13:09;4.57;;;4.10;;
16093;SDS011;8151;47.824;12.092;2022-08-19T05:15:39;8.27;;;3.90;;
16093;SDS011;8151;47.824;12.092;2022-08-19T05:18:09;5.87;;;3.97;;
16093;SDS011;8151;47.824;12.092;2022-08-19T05:20:55;5.57;;;4.03;;
16093;SDS011;8151;47.824;12.092;2022-08-19T05:23:41;5.50;;;4.30;;
16093;SDS011;8151;47.824;12.092;2022-08-19T05:26:11;7.80;;;4.47;;
16093;SDS011;8151;47.824;12.092;2022-08-19T05:28:41;5.47;;;4.30;;
16093;SDS011;8151;47.824;12.092;2022-08-19T05:31:09;4.23;;;3.77;;
16093;SDS011;8151;47.824;12.092;2022-08-19T05:33:38;8.73;;;4.03;;
16093;SDS011;8151;47.824;12.092;2022-08-19T05:36:07;6.80;;;3.80;;
16093;SDS011;8151;47.824;12.092;2022-08-19T05:38:36;6.90;;;4.40;;
16093;SDS011;8151;47.824;12.092;2022-08-19T05:41:06;5.63;;;3.97;;
16093;SDS011;8151;47.824;12.092;2022-08-19T05:43:36;4.67;;;3.73;;
16093;SDS011;8151;47.824;12.092;2022-08-19T05:46:06;5.80;;;4.77;;
16093;SDS011;8151;47.824;12.092;2022-08-19T05:48:35;4.30;;;3.90;;
16093;SDS011;8151;47.824;12.092;2022-08-19T05:51:04;6.20;;;4.30;;
16093;SDS011;8151;47.824;12.092;2022-08-19T05:53:35;5.60;;;4.50;;
16093;SDS011;8151;47.824;12.092;2022-08-19T05:56:04;4.40;;;4.00;;
16093;SDS011;8151;47.824;12.092;2022-08-19T05:58:33;5.30;;;3.70;;
16093;SDS011;8151;47.824;12.092;2022-08-19T06:01:03;6.10;;;4.37;;
16093;SDS011;8151;47.824;12.092;2022-08-19T06:03:37;4.03;;;3.60;;
16093;SDS011;8151;47.824;12.092;2022-08-19T06:06:06;6.80;;;4.00;;
16093;SDS011;8151;47.824;12.092;2022-08-19T06:08:36;7.83;;;4.90;;
16093;SDS011;8151;47.824;12.092;2022-08-19T06:11:12;4.60;;;4.07;;
16093;SDS011;8151;47.824;12.092;2022-08-19T06:13:46;6.13;;;4.53;;
16093;SDS011;8151;47.824;12.092;2022-08-19T06:16:27;5.47;;;4.30;;
16093;SDS011;8151;47.824;12.092;2022-08-19T06:18:59;4.90;;;3.80;;
16093;SDS011;8151;47.824;12.092;2022-08-19T06:21:29;8.00;;;4.47;;
16093;SDS011;8151;47.824;12.092;2022-08-19T06:24:00;5.47;;;4.13;;
16093;SDS011;8151;47.824;12.092;2022-08-19T06:26:29;9.37;;;4.43;;
16093;SDS011;8151;47.824;12.092;2022-08-19T06:28:57;5.13;;;4.30;;
16093;SDS011;8151;47.824;12.092;2022-08-19T06:31:28;4.67;;;3.93;;
16093;SDS011;8151;47.824;12.092;2022-08-19T06:33:58;4.33;;;3.70;;
16093;SDS011;8151;47.824;12.092;2022-08-19T06:36:30;5.27;;;4.17;;
16093;SDS011;8151;47.824;12.092;2022-08-19T06:39:01;8.83;;;5.23;;
16093;SDS011;8151;47.824;12.092;2022-08-19T06:41:31;14.33;;;7.07;;
16093;SDS011;8151;47.824;12.092;2022-08-19T06:44:07;8.93;;;6.57;;
16093;SDS011;8151;47.824;12.092;2022-08-19T06:46:40;16.07;;;6.87;;
16093;SDS011;8151;47.824;12.092;2022-08-19T06:49:19;25.00;;;7.47;;
16093;SDS011;8151;47.824;12.092;2022-08-19T06:51:48;4.70;;;4.20;;
16093;SDS011;8151;47.824;12.092;2022-08-19T06:54:18;3.97;;;3.53;;
16093;SDS011;8151;47.824;12.092;2022-08-19T06:56:47;4.17;;;3.70;;
16093;SDS011;8151;47.824;12.092;2022-08-19T06:59:17;4.30;;;3.23;;
16093;SDS011;8151;47.824;12.092;2022-08-19T07:01:49;3.97;;;3.10;;
16093;SDS011;8151;47.824;12.092;2022-08-19T07:04:20;3.60;;;3.30;;
16093;SDS011;8151;47.824;12.092;2022-08-19T07:06:50;3.20;;;2.97;;
16093;SDS011;8151;47.824;12.092;2022-08-19T07:09:24;4.07;;;3.63;;
16093;SDS011;8151;47.824;12.092;2022-08-19T07:11:53;6.40;;;2.70;;
16093;SDS011;8151;47.824;12.092;2022-08-19T07:14:24;5.93;;;2.80;;
16093;SDS011;8151;47.824;12.092;2022-08-19T07:16:56;3.77;;;3.37;;
16093;SDS011;8151;47.824;12.092;2022-08-19T07:19:25;4.30;;;3.20;;
16093;SDS011;8151;47.824;12.092;2022-08-19T07:21:55;2.80;;;2.60;;
16093;SDS011;8151;47.824;12.092;2022-08-19T07:24:24;3.13;;;2.63;;
16093;SDS011;8151;47.824;12.092;2022-08-19T07:27:00;3.63;;;3.33;;
16093;SDS011;8151;47.824;12.092;2022-08-19T07:29:36;3.47;;;2.80;;
16093;SDS011;8151;47.824;12.092;2022-08-19T07:32:06;3.47;;;3.17;;
16093;SDS011;8151;47.824;12.092;2022-08-19T07:34:39;4.10;;;3.30;;
16093;SDS011;8151;47.824;12.092;2022-08-19T07:37:08;4.47;;;3.30;;
16093;SDS011;8151;47.824;12.092;2022-08-19T07:39:38;4.10;;;3.03;;
16093;SDS011;8151;47.824;12.092;2022-08-19T07:42:07;5.40;;;3.70;;
16093;SDS011;8151;47.824;12.092;2022-08-19T07:44:39;5.33;;;3.67;;
16093;SDS011;8151;47.824;12.092;2022-08-19T07:47:18;3.73;;;3.07;;
16093;SDS011;8151;47.824;12.092;2022-08-19T07:50:07;3.60;;;3.30;;
16093;SDS011;8151;47.824;12.092;2022-08-19T07:52:38;3.97;;;3.47;;
16093;SDS011;8151;47.824;12.092;2022-08-19T07:55:08;4.50;;;2.97;;
16093;SDS011;8151;47.824;12.092;2022-08-19T07:57:58;3.63;;;3.33;;
16093;SDS011;8151;47.824;12.092;2022-08-19T08:00:29;4.07;;;3.57;;
16093;SDS011;8151;47.824;12.092;2022-08-19T08:02:58;5.80;;;3.60;;
16093;SDS011;8151;47.824;12.092;2022-08-19T08:05:28;7.40;;;3.80;;
16093;SDS011;8151;47.824;12.092;2022-08-19T08:08:14;4.33;;;3.40;;
16093;SDS011;8151;47.824;12.092;2022-08-19T08:11:14;3.67;;;3.37;;
16093;SDS011;8151;47.824;12.092;2022-08-19T08:13:46;5.17;;;3.47;;
16093;SDS011;8151;47.824;12.092;2022-08-19T08:16:30;3.63;;;3.30;;
16093;SDS011;8151;47.824;12.092;2022-08-19T08:19:14;3.97;;;3.20;;
16093;SDS011;8151;47.824;12.092;2022-08-19T08:21:52;5.80;;;4.83;;
16093;SDS011;8151;47.824;12.092;2022-08-19T08:24:23;3.70;;;3.40;;
16093;SDS011;8151;47.824;12.092;2022-08-19T08:26:54;8.33;;;5.87;;
16093;SDS011;8151;47.824;12.092;2022-08-19T08:29:25;6.40;;;4.60;;
16093;SDS011;8151;47.824;12.092;2022-08-19T08:32:01;14.03;;;8.23;;
16093;SDS011;8151;47.824;12.092;2022-08-19T08:34:42;11.80;;;7.40;;
16093;SDS011;8151;47.824;12.092;2022-08-19T08:37:13;8.33;;;6.43;;
16093;SDS011;8151;47.824;12.092;2022-08-19T08:39:42;4.43;;;4.03;;
16093;SDS011;8151;47.824;12.092;2022-08-19T08:42:12;5.90;;;5.10;;
16093;SDS011;8151;47.824;12.092;2022-08-19T08:44:48;6.00;;;3.87;;
16093;SDS011;8151;47.824;12.092;2022-08-19T08:47:22;7.07;;;3.73;;
16093;SDS011;8151;47.824;12.092;2022-08-19T08:49:55;3.60;;;3.30;;
16093;SDS011;8151;47.824;12.092;2022-08-19T08:52:28;3.47;;;3.17;;
16093;SDS011;8151;47.824;12.092;2022-08-19T08:55:03;7.77;;;6.97;;
16093;SDS011;8151;47.824;12.092;2022-08-19T08:57:37;4.40;;;3.43;;
16093;SDS011;8151;47.824;12.092;2022-08-19T09:00:14;3.50;;;3.20;;
16093;SDS011;8151;47.824;12.092;2022-08-19T09:02:47;3.67;;;3.37;;
16093;SDS011;8151;47.824;12.092;2022-08-19T09:05:19;3.57;;;3.27;;
16093;SDS011;8151;47.824;12.092;2022-08-19T09:07:53;4.23;;;3.70;;
16093;SDS011;8151;47.824;12.092;2022-08-19T09:10:30;4.00;;;3.60;;
16093;SDS011;8151;47.824;12.092;2022-08-19T09:13:12;3.60;;;3.27;;
16093;SDS011;8151;47.824;12.092;2022-08-19T09:15:51;6.30;;;3.57;;
16093;SDS011;8151;47.824;12.092;2022-08-19T09:18:22;6.03;;;4.10;;
16093;SDS011;8151;47.824;12.092;2022-08-19T09:20:57;4.10;;;3.70;;
16093;SDS011;8151;47.824;12.092;2022-08-19T09:23:26;4.53;;;3.70;;
16093;SDS011;8151;47.824;12.092;2022-08-19T09:25:55;4.13;;;3.67;;
16093;SDS011;8151;47.824;12.092;2022-08-19T09:28:24;4.30;;;4.00;;
16093;SDS011;8151;47.824;12.092;2022-08-19T09:30:53;6.87;;;4.83;;
16093;SDS011;8151;47.824;12.092;2022-08-19T09:33:21;5.50;;;4.90;;
16093;SDS011;8151;47.824;12.092;2022-08-19T09:35:50;9.90;;;8.90;;
16093;SDS011;8151;47.824;12.092;2022-08-19T09:38:36;3.80;;;3.50;;
16093;SDS011;8151;47.824;12.092;2022-08-19T09:41:10;5.03;;;3.70;;
16093;SDS011;8151;47.824;12.092;2022-08-19T09:43:41;6.33;;;5.40;;
16093;SDS011;8151;47.824;12.092;2022-08-19T09:46:14;4.50;;;3.20;;
16093;SDS011;8151;47.824;12.092;2022-08-19T09:48:44;3.57;;;3.27;;
16093;SDS011;8151;47.824;12.092;2022-08-19T09:51:17;3.47;;;3.17;;
16093;SDS011;8151;47.824;12.092;2022-08-19T09:53:48;3.10;;;2.90;;
16093;SDS011;8151;47.824;12.092;2022-08-19T09:56:21;3.58;;;3.10;;
16093;SDS011;8151;47.824;12.092;2022-08-19T09:58:50;3.27;;;3.00;;
16093;SDS011;8151;47.824;12.092;2022-08-19T10:01:19;3.78;;;3.47;;
16093;SDS011;8151;47.824;12.092;2022-08-19T10:03:50;3.25;;;3.05;;
16093;SDS011;8151;47.824;12.092;2022-08-19T10:06:22;3.33;;;3.03;;
16093;SDS011;8151;47.824;12.092;2022-08-19T10:09:14;4.00;;;2.73;;
16093;SDS011;8151;47.824;12.092;2022-08-19T10:12:00;4.13;;;3.30;;
16093;SDS011;8151;47.824;12.092;2022-08-19T10:14:32;3.47;;;3.20;;
16093;SDS011;8151;47.824;12.092;2022-08-19T10:17:01;3.08;;;2.88;;
16093;SDS011;8151;47.824;12.092;2022-08-19T10:19:47;5.18;;;2.97;;
16093;SDS011;8151;47.824;12.092;2022-08-19T10:22:21;3.03;;;2.72;;
16093;SDS011;8151;47.824;12.092;2022-08-19T10:24:53;2.65;;;2.45;;
16093;SDS011;8151;47.824;12.092;2022-08-19T10:27:21;2.85;;;2.65;;
16093;SDS011;8151;47.824;12.092;2022-08-19T10:29:52;3.10;;;2.80;;
16093;SDS011;8151;47.824;12.092;2022-08-19T10:32:21;3.70;;;3.10;;
16093;SDS011;8151;47.824;12.092;2022-08-19T10:35:00;3.03;;;2.80;;
16093;SDS011;8151;47.824;12.092;2022-08-19T10:37:32;3.17;;;2.88;;
16093;SDS011;8151;47.824;12.092;2022-08-19T10:40:03;5.72;;;4.32;;
16093;SDS011;8151;47.824;12.092;2022-08-19T10:42:33;3.50;;;3.10;;
16093;SDS011;8151;47.824;12.092;2022-08-19T10:45:03;3.58;;;3.28;;
16093;SDS011;8151;47.824;12.092;2022-08-19T10:47:34;3.58;;;3.28;;
16093;SDS011;8151;47.824;12.092;2022-08-19T10:50:02;3.90;;;3.55;;
16093;SDS011;8151;47.824;12.092;2022-08-19T10:52:55;4.30;;;3.55;;
16093;SDS011;8151;47.824;12.092;2022-08-19T10:55:25;6.70;;;6.07;;
16093;SDS011;8151;47.824;12.092;2022-08-19T10:58:12;4.80;;;4.40;;
16093;SDS011;8151;47.824;12.092;2022-08-19T11:00:42;4.45;;;4.05;;
16093;SDS011;8151;47.824;12.092;2022-08-19T11:03:11;4.50;;;3.20;;
16093;SDS011;8151;47.824;12.092;2022-08-19T11:05:40;3.50;;;3.20;;
16093;SDS011;8151;47.824;12.092;2022-08-19T11:08:11;3.58;;;3.28;;
16093;SDS011;8151;47.824;12.092;2022-08-19T11:10:51;4.75;;;4.35;;
16093;SDS011;8151;47.824;12.092;2022-08-19T11:13:24;5.35;;;4.45;;
16093;SDS011;8151;47.824;12.092;2022-08-19T11:15:56;4.28;;;3.60;;
16093;SDS011;8151;47.824;12.092;2022-08-19T11:18:32;4.20;;;3.60;;
16093;SDS011;8151;47.824;12.092;2022-08-19T11:21:08;4.22;;;3.83;;
16093;SDS011;8151;47.824;12.092;2022-08-19T11:23:39;3.67;;;3.38;;
16093;SDS011;8151;47.824;12.092;2022-08-19T11:26:09;3.45;;;3.15;;
16093;SDS011;8151;47.824;12.092;2022-08-19T11:28:39;5.35;;;3.83;;
16093;SDS011;8151;47.824;12.092;2022-08-19T11:31:11;3.80;;;3.42;;
16093;SDS011;8151;47.824;12.092;2022-08-19T11:33:41;3.78;;;3.47;;
16093;SDS011;8151;47.824;12.092;2022-08-19T11:36:13;3.40;;;3.10;;
16093;SDS011;8151;47.824;12.092;2022-08-19T11:38:43;3.35;;;3.05;;
16093;SDS011;8151;47.824;12.092;2022-08-19T11:41:17;3.10;;;2.80;;
16093;SDS011;8151;47.824;12.092;2022-08-19T11:43:47;3.40;;;3.10;;
16093;SDS011;8151;47.824;12.092;2022-08-19T11:46:16;2.92;;;2.65;;
16093;SDS011;8151;47.824;12.092;2022-08-19T11:48:45;3.80;;;2.85;;
16093;SDS011;8151;47.824;12.092;2022-08-19T11:51:15;3.03;;;2.75;;
16093;SDS011;8151;47.824;12.092;2022-08-19T11:53:46;3.53;;;2.70;;
16093;SDS011;8151;47.824;12.092;2022-08-19T11:56:17;2.80;;;2.60;;
16093;SDS011;8151;47.824;12.092;2022-08-19T11:58:46;2.70;;;2.50;;
16093;SDS011;8151;47.824;12.092;2022-08-19T12:01:17;4.55;;;4.13;;
16093;SDS011;8151;47.824;12.092;2022-08-19T12:03:47;2.97;;;2.45;;
16093;SDS011;8151;47.824;12.092;2022-08-19T12:06:18;4.20;;;3.58;;
16093;SDS011;8151;47.824;12.092;2022-08-19T12:08:50;2.50;;;2.30;;
16093;SDS011;8151;47.824;12.092;2022-08-19T12:11:22;3.65;;;3.35;;
16093;SDS011;8151;47.824;12.092;2022-08-19T12:13:51;3.88;;;3.58;;
16093;SDS011;8151;47.824;12.092;2022-08-19T12:16:22;3.33;;;3.03;;
16093;SDS011;8151;47.824;12.092;2022-08-19T12:18:54;2.88;;;2.65;;
16093;SDS011;8151;47.824;12.092;2022-08-19T12:21:26;3.25;;;2.95;;
16093;SDS011;8151;47.824;12.092;2022-08-19T12:23:56;2.78;;;2.53;;
16093;SDS011;8151;47.824;12.092;2022-08-19T12:26:28;3.13;;;2.85;;
16093;SDS011;8151;47.824;12.092;2022-08-19T12:29:18;2.70;;;2.50;;
16093;SDS011;8151;47.824;12.092;2022-08-19T12:31:50;3.08;;;2.55;;
16093;SDS011;8151;47.824;12.092;2022-08-19T12:34:18;3.15;;;2.65;;
16093;SDS011;8151;47.824;12.092;2022-08-19T12:36:47;2.90;;;2.67;;
16093;SDS011;8151;47.824;12.092;2022-08-19T12:39:17;3.25;;;2.95;;
16093;SDS011;8151;47.824;12.092;2022-08-19T12:41:46;2.80;;;2.60;;
16093;SDS011;8151;47.824;12.092;2022-08-19T12:44:21;2.95;;;2.67;;
16093;SDS011;8151;47.824;12.092;2022-08-19T12:46:57;3.63;;;2.53;;
16093;SDS011;8151;47.824;12.092;2022-08-19T12:49:27;2.95;;;2.72;;
16093;SDS011;8151;47.824;12.092;2022-08-19T12:52:15;2.40;;;2.20;;
16093;SDS011;8151;47.824;12.092;2022-08-19T12:54:49;3.20;;;2.90;;
16093;SDS011;8151;47.824;12.092;2022-08-19T12:57:22;2.25;;;2.05;;
16093;SDS011;8151;47.824;12.092;2022-08-19T12:59:59;2.33;;;2.22;;
16093;SDS011;8151;47.824;12.092;2022-08-19T13:02:31;2.70;;;2.40;;
16093;SDS011;8151;47.824;12.092;2022-08-19T13:05:05;3.13;;;2.78;;
16093;SDS011;8151;47.824;12.092;2022-08-19T13:07:37;3.03;;;2.83;;
16093;SDS011;8151;47.824;12.092;2022-08-19T13:10:06;3.40;;;2.55;;
16093;SDS011;8151;47.824;12.092;2022-08-19T13:12:38;2.90;;;2.60;;
16093;SDS011;8151;47.824;12.092;2022-08-19T13:15:08;2.35;;;2.15;;
16093;SDS011;8151;47.824;12.092;2022-08-19T13:17:38;1.80;;;1.70;;
16093;SDS011;8151;47.824;12.092;2022-08-19T13:20:07;2.75;;;2.55;;
16093;SDS011;8151;47.824;12.092;2022-08-19T13:22:37;2.00;;;1.90;;
16093;SDS011;8151;47.824;12.092;2022-08-19T13:25:07;2.17;;;2.03;;
16093;SDS011;8151;47.824;12.092;2022-08-19T13:27:38;2.65;;;2.40;;
16093;SDS011;8151;47.824;12.092;2022-08-19T13:30:08;3.70;;;2.47;;
16093;SDS011;8151;47.824;12.092;2022-08-19T13:33:08;2.83;;;2.33;;
16093;SDS011;8151;47.824;12.092;2022-08-19T13:35:43;2.35;;;2.15;;
16093;SDS011;8151;47.824;12.092;2022-08-19T13:38:14;2.38;;;2.17;;
16093;SDS011;8151;47.824;12.092;2022-08-19T13:40:44;2.30;;;2.15;;
16093;SDS011;8151;47.824;12.092;2022-08-19T13:43:15;2.55;;;2.35;;
16093;SDS011;8151;47.824;12.092;2022-08-19T13:45:49;2.65;;;1.92;;
16093;SDS011;8151;47.824;12.092;2022-08-19T13:48:23;2.80;;;2.60;;
16093;SDS011;8151;47.824;12.092;2022-08-19T13:50:53;2.67;;;2.47;;
16093;SDS011;8151;47.824;12.092;2022-08-19T13:53:23;2.40;;;2.20;;
16093;SDS011;8151;47.824;12.092;2022-08-19T13:55:52;2.17;;;2.00;;
16093;SDS011;8151;47.824;12.092;2022-08-19T13:58:22;2.20;;;2.10;;
16093;SDS011;8151;47.824;12.092;2022-08-19T14:00:51;1.80;;;1.70;;
16093;SDS011;8151;47.824;12.092;2022-08-19T14:03:19;2.10;;;1.90;;
16093;SDS011;8151;47.824;12.092;2022-08-19T14:05:48;1.85;;;1.75;;
16093;SDS011;8151;47.824;12.092;2022-08-19T14:08:17;1.75;;;1.65;;
16093;SDS011;8151;47.824;12.092;2022-08-19T14:10:49;2.10;;;2.00;;
16093;SDS011;8151;47.824;12.092;2022-08-19T14:13:18;2.50;;;2.30;;
16093;SDS011;8151;47.824;12.092;2022-08-19T14:15:49;2.55;;;2.35;;
16093;SDS011;8151;47.824;12.092;2022-08-19T14:18:19;2.45;;;2.25;;
16093;SDS011;8151;47.824;12.092;2022-08-19T14:20:47;3.92;;;2.22;;
16093;SDS011;8151;47.824;12.092;2022-08-19T14:23:16;3.92;;;2.22;;
16093;SDS011;8151;47.824;12.092;2022-08-19T14:25:44;3.25;;;2.40;;
16093;SDS011;8151;47.824;12.092;2022-08-19T14:28:13;3.55;;;2.33;;
16093;SDS011;8151;47.824;12.092;2022-08-19T14:30:42;2.60;;;2.30;;
16093;SDS011;8151;47.824;12.092;2022-08-19T14:33:12;3.00;;;2.80;;
16093;SDS011;8151;47.824;12.092;2022-08-19T14:35:41;4.35;;;3.00;;
16093;SDS011;8151;47.824;12.092;2022-08-19T14:38:14;2.90;;;2.70;;
16093;SDS011;8151;47.824;12.092;2022-08-19T14:40:47;3.22;;;2.92;;
16093;SDS011;8151;47.824;12.092;2022-08-19T14:43:20;2.83;;;2.63;;
16093;SDS011;8151;47.824;12.092;2022-08-19T14:45:49;3.00;;;2.80;;
16093;SDS011;8151;47.824;12.092;2022-08-19T14:48:20;2.73;;;2.53;;
16093;SDS011;8151;47.824;12.092;2022-08-19T14:50:55;4.15;;;2.30;;
16093;SDS011;8151;47.824;12.092;2022-08-19T14:53:23;2.38;;;2.00;;
16093;SDS011;8151;47.824;12.092;2022-08-19T14:55:52;2.10;;;2.00;;
16093;SDS011;8151;47.824;12.092;2022-08-19T14:58:20;2.27;;;2.07;;
16093;SDS011;8151;47.824;12.092;2022-08-19T15:00:56;2.30;;;2.10;;
16093;SDS011;8151;47.824;12.092;2022-08-19T15:03:28;2.97;;;2.10;;
16093;SDS011;8151;47.824;12.092;2022-08-19T15:05:58;3.33;;;2.30;;
16093;SDS011;8151;47.824;12.092;2022-08-19T15:08:29;1.67;;;1.53;;
16093;SDS011;8151;47.824;12.092;2022-08-19T15:10:58;2.47;;;2.07;;
16093;SDS011;8151;47.824;12.092;2022-08-19T15:13:28;2.00;;;1.80;;
16093;SDS011;8151;47.824;12.092;2022-08-19T15:15:57;2.10;;;1.50;;
16093;SDS011;8151;47.824;12.092;2022-08-19T15:18:27;1.60;;;1.50;;